首页
METAR-TAF:

METAR-TAF

机场 :

朱諾, 阿拉斯加州, 美国

纬度: 58-21-17N, 经度: 134-34-34W, 海拔: 6米

当前天气观测

该预报发布于13分钟前的22:53 UTC
风速10节,风向
温度 2°C
湿度 93%
气压 1025 hPa
能見度: 16.1公里
少量云层高于500英尺
散云层高于2700英尺
阴天层高于3900英尺

METAR: PAJN 232253Z 08010KT 10SM FEW005 SCT027 OVC039 02/01 A3028 RMK AO2 SLP254 T00170006

时间: 14:06 (23:06 UTC)

预报

该预报发布于47分钟前的22:19 UTC
预报有效从23日的 22点(UTC)到 24日的 18点(UTC)
风速14节,风向东转东南
能見度: 10公里
少量云层高于600英尺
散云层高于2500英尺
阴天层高于3500英尺
从 24日的 0600点(UTC)
风速12节,风向
能見度: 10公里
多云层高于2500英尺
阴天层高于3500英尺
小雨

TAF: PAJN 232219Z 2322/2418 11014KT P6SM FEW006 SCT025 OVC035 FM240600 09012KT P6SM -RA BKN025 OVC035

超过4000个机场的气象观测和天气预报(METAR&TAF报告)。

可查询的气象台以黄色和红色小点在地图上表示。

将鼠标移到小点上方,可查看气象台名称。

然后点击查看天气观测和预报。

如需切换地图:点击带黑十字的绿色按钮放大地图;点击带横线的绿色按钮缩小地图;或者点击绿色箭头查看邻近地区的地图。


METAR-TAF: